NDF57EL EDDB-EDDC
Flight info
| Callsign | NDF57EL |
|---|---|
| Flight time | 0h 16m |
| Altitude | 13000 |
| Route | LUROS3Z LUROS M725 KOBUS DCT |
| Aircraft | A321/M-SDE3FGHIRWY/LB1 |
Departure
| Time | 2026-04-30 20:54 |
|---|---|
| Airport | Berlin Brandenburg Airport (EDDB) |
Arrival
| Time | 2026-04-30 21:11 |
|---|---|
| Airport | Dresden Airport (EDDC) |
| Time | Latitude | Longitude | Altitude | Speed | Heading |
|---|---|---|---|---|---|
| 2026-04-30 20:42 | 52.36283 | 13.50655 | 155 ft | 0 kts | 68° |
| 2026-04-30 20:45 | 52.36277 | 13.50628 | 155 ft | 4 kts | 69° |
| 2026-04-30 20:45 | 52.36266 | 13.50581 | 155 ft | 3 kts | 70° |
| 2026-04-30 20:45 | 52.36261 | 13.50541 | 155 ft | 3 kts | 106° |
| 2026-04-30 20:46 | 52.36279 | 13.50504 | 155 ft | 0 kts | 159° |
| 2026-04-30 20:47 | 52.36274 | 13.50508 | 155 ft | 4 kts | 159° |
| 2026-04-30 20:48 | 52.36071 | 13.50635 | 155 ft | 21 kts | 159° |
| 2026-04-30 20:48 | 52.35941 | 13.50717 | 155 ft | 17 kts | 159° |
| 2026-04-30 20:48 | 52.35849 | 13.50761 | 154 ft | 14 kts | 184° |
| 2026-04-30 20:48 | 52.35780 | 13.50661 | 154 ft | 14 kts | 246° |
| 2026-04-30 20:49 | 52.35742 | 13.50497 | 154 ft | 18 kts | 250° |
| 2026-04-30 20:49 | 52.35682 | 13.50229 | 154 ft | 32 kts | 250° |
| 2026-04-30 20:49 | 52.35598 | 13.49877 | 154 ft | 33 kts | 248° |
| 2026-04-30 20:50 | 52.35439 | 13.49232 | 154 ft | 29 kts | 248° |
| 2026-04-30 20:50 | 52.35364 | 13.48922 | 154 ft | 30 kts | 248° |
| 2026-04-30 20:50 | 52.35290 | 13.48605 | 154 ft | 30 kts | 249° |
| 2026-04-30 20:50 | 52.35217 | 13.48288 | 154 ft | 30 kts | 249° |
| 2026-04-30 20:51 | 52.35142 | 13.47961 | 154 ft | 31 kts | 249° |
| 2026-04-30 20:51 | 52.34981 | 13.47305 | 154 ft | 31 kts | 249° |
| 2026-04-30 20:51 | 52.34903 | 13.46975 | 157 ft | 28 kts | 249° |
| 2026-04-30 20:52 | 52.34834 | 13.46746 | 154 ft | 19 kts | 206° |
| 2026-04-30 20:52 | 52.34704 | 13.46779 | 154 ft | 20 kts | 160° |
| 2026-04-30 20:52 | 52.34572 | 13.46962 | 154 ft | 1 kts | 67° |
| 2026-04-30 20:53 | 52.34599 | 13.47067 | 154 ft | 24 kts | 67° |
| 2026-04-30 20:53 | 52.34698 | 13.47463 | 154 ft | 51 kts | 68° |
| 2026-04-30 20:53 | 52.34859 | 13.48115 | 154 ft | 72 kts | 68° |
| 2026-04-30 20:54 | 52.35431 | 13.50585 | 233 ft | 175 kts | 69° |
| 2026-04-30 20:54 | 52.35827 | 13.52341 | 996 ft | 161 kts | 71° |
| 2026-04-30 20:54 | 52.36013 | 13.54148 | 1579 ft | 165 kts | 91° |
| 2026-04-30 20:55 | 52.34608 | 13.57120 | 2552 ft | 189 kts | 143° |
| 2026-04-30 20:55 | 52.33477 | 13.58430 | 2801 ft | 210 kts | 143° |
| 2026-04-30 20:55 | 52.32229 | 13.59894 | 2963 ft | 233 kts | 143° |
| 2026-04-30 20:56 | 52.29062 | 13.62470 | 3947 ft | 268 kts | 161° |
| 2026-04-30 20:56 | 52.27288 | 13.63447 | 4820 ft | 271 kts | 160° |
| 2026-04-30 20:56 | 52.23673 | 13.65444 | 6555 ft | 278 kts | 159° |
| 2026-04-30 20:57 | 52.21829 | 13.66467 | 7362 ft | 282 kts | 158° |
| 2026-04-30 20:57 | 52.19963 | 13.67502 | 8155 ft | 285 kts | 158° |
| 2026-04-30 20:57 | 52.18094 | 13.68537 | 8929 ft | 290 kts | 157° |
| 2026-04-30 20:58 | 52.14212 | 13.70685 | 10474 ft | 299 kts | 156° |
| 2026-04-30 20:58 | 52.12185 | 13.71811 | 10834 ft | 319 kts | 156° |
| 2026-04-30 20:58 | 52.10007 | 13.73029 | 11071 ft | 342 kts | 156° |
| 2026-04-30 20:58 | 52.07718 | 13.74293 | 11607 ft | 351 kts | 156° |
| 2026-04-30 20:59 | 52.03031 | 13.76840 | 13016 ft | 359 kts | 156° |
| 2026-04-30 20:59 | 52.00678 | 13.78116 | 13340 ft | 362 kts | 156° |
| 2026-04-30 21:00 | 51.95881 | 13.80721 | 13449 ft | 365 kts | 156° |
| 2026-04-30 21:00 | 51.91060 | 13.83352 | 13433 ft | 366 kts | 157° |
| 2026-04-30 21:01 | 51.86235 | 13.85966 | 13431 ft | 366 kts | 157° |
| 2026-04-30 21:01 | 51.83820 | 13.87266 | 13421 ft | 365 kts | 158° |
| 2026-04-30 21:01 | 51.78980 | 13.89673 | 13436 ft | 363 kts | 158° |
| 2026-04-30 21:02 | 51.76566 | 13.90877 | 13438 ft | 363 kts | 158° |
| 2026-04-30 21:02 | 51.74150 | 13.92082 | 13436 ft | 363 kts | 158° |
| 2026-04-30 21:02 | 51.71734 | 13.93286 | 13438 ft | 364 kts | 158° |
| 2026-04-30 21:02 | 51.69316 | 13.94490 | 13444 ft | 364 kts | 158° |
| 2026-04-30 21:03 | 51.66905 | 13.95701 | 13440 ft | 363 kts | 158° |
| 2026-04-30 21:03 | 51.64525 | 13.96905 | 13447 ft | 363 kts | 158° |
| 2026-04-30 21:03 | 51.62107 | 13.98107 | 13451 ft | 364 kts | 161° |
| 2026-04-30 21:03 | 51.59580 | 13.98625 | 13404 ft | 366 kts | 174° |
| 2026-04-30 21:04 | 51.57031 | 13.98747 | 12752 ft | 368 kts | 175° |
| 2026-04-30 21:04 | 51.54465 | 13.98840 | 12087 ft | 369 kts | 175° |
| 2026-04-30 21:04 | 51.49322 | 13.99034 | 10800 ft | 370 kts | 175° |
| 2026-04-30 21:05 | 51.46753 | 13.99137 | 10156 ft | 369 kts | 175° |
| 2026-04-30 21:05 | 51.44190 | 13.99249 | 9609 ft | 365 kts | 175° |
| 2026-04-30 21:05 | 51.41681 | 13.99363 | 8988 ft | 361 kts | 175° |
| 2026-04-30 21:05 | 51.39253 | 13.99481 | 8152 ft | 346 kts | 175° |
| 2026-04-30 21:06 | 51.36899 | 13.99607 | 7334 ft | 331 kts | 175° |
| 2026-04-30 21:06 | 51.34639 | 13.99692 | 6499 ft | 320 kts | 181° |
| 2026-04-30 21:06 | 51.32488 | 13.98999 | 5663 ft | 312 kts | 194° |
| 2026-04-30 21:06 | 51.30431 | 13.98017 | 4804 ft | 305 kts | 195° |
| 2026-04-30 21:07 | 51.28435 | 13.96992 | 4055 ft | 296 kts | 203° |
| 2026-04-30 21:07 | 51.26791 | 13.95285 | 3937 ft | 275 kts | 220° |
| 2026-04-30 21:07 | 51.25352 | 13.93295 | 3633 ft | 268 kts | 221° |
| 2026-04-30 21:07 | 51.23990 | 13.91391 | 3293 ft | 252 kts | 221° |
| 2026-04-30 21:08 | 51.22717 | 13.89625 | 2965 ft | 233 kts | 221° |
| 2026-04-30 21:08 | 51.21546 | 13.88003 | 2667 ft | 218 kts | 220° |
| 2026-04-30 21:08 | 51.20468 | 13.86511 | 2399 ft | 193 kts | 220° |
| 2026-04-30 21:08 | 51.19506 | 13.85181 | 2162 ft | 171 kts | 220° |
| 2026-04-30 21:09 | 51.18650 | 13.83998 | 1903 ft | 157 kts | 220° |
| 2026-04-30 21:09 | 51.17841 | 13.82881 | 1693 ft | 151 kts | 220° |
| 2026-04-30 21:09 | 51.17056 | 13.81797 | 1478 ft | 148 kts | 220° |
| 2026-04-30 21:09 | 51.16283 | 13.80732 | 1232 ft | 146 kts | 220° |
| 2026-04-30 21:10 | 51.15526 | 13.79692 | 1044 ft | 143 kts | 220° |
| 2026-04-30 21:10 | 51.14773 | 13.78664 | 824 ft | 141 kts | 220° |
| 2026-04-30 21:10 | 51.14055 | 13.77675 | 725 ft | 127 kts | 220° |
| 2026-04-30 21:10 | 51.13494 | 13.76907 | 738 ft | 85 kts | 221° |
| 2026-04-30 21:11 | 51.13171 | 13.76455 | 749 ft | 48 kts | 221° |
| 2026-04-30 21:11 | 51.12898 | 13.76063 | 754 ft | 56 kts | 222° |
| 2026-04-30 21:11 | 51.12698 | 13.75844 | 763 ft | 17 kts | 165° |
| 2026-04-30 21:11 | 51.12648 | 13.75926 | 762 ft | 0 kts | 128° |
| 2026-04-30 21:12 | 51.12638 | 13.75947 | 762 ft | 6 kts | 128° |
| 2026-04-30 21:12 | 51.12604 | 13.76015 | 757 ft | 10 kts | 126° |
| 2026-04-30 21:12 | 51.12613 | 13.76134 | 757 ft | 15 kts | 52° |
| 2026-04-30 21:12 | 51.12698 | 13.76256 | 752 ft | 20 kts | 41° |
| 2026-04-30 21:13 | 51.12794 | 13.76431 | 754 ft | 18 kts | 85° |
| 2026-04-30 21:13 | 51.12731 | 13.76567 | 753 ft | 17 kts | 131° |
| 2026-04-30 21:13 | 51.12662 | 13.76666 | 753 ft | 12 kts | 174° |
| 2026-04-30 21:13 | 51.12598 | 13.76609 | 748 ft | 0 kts | 220° |